createdAt,value
2023-05-19T00:00:53.647Z,11.99
2023-05-19T00:01:56.656Z,11.98
2023-05-19T00:03:00.716Z,11.97
2023-05-19T00:04:06.733Z,11.97
2023-05-19T00:05:10.664Z,11.95
2023-05-19T00:06:14.101Z,11.94
2023-05-19T00:07:20.742Z,11.93
2023-05-19T00:08:24.854Z,11.92
2023-05-19T00:09:27.497Z,11.90
2023-05-19T00:10:32.093Z,11.89
2023-05-19T00:11:36.593Z,11.88
2023-05-19T00:12:39.683Z,11.87
2023-05-19T00:13:45.420Z,11.86
2023-05-19T00:14:48.056Z,11.85
2023-05-19T00:15:51.409Z,11.84
2023-05-19T00:16:56.518Z,11.85
2023-05-19T00:17:59.105Z,11.85
2023-05-19T00:19:03.281Z,11.85
2023-05-19T00:20:07.593Z,11.84
2023-05-19T00:21:10.082Z,11.84
2023-05-19T00:22:12.377Z,11.82
2023-05-19T00:23:14.731Z,11.81
2023-05-19T00:24:17.159Z,11.81
2023-05-19T00:25:19.538Z,11.81
2023-05-19T00:26:23.412Z,11.80
2023-05-19T00:27:38.056Z,11.80
2023-05-19T00:28:42.960Z,11.80
2023-05-19T00:29:45.591Z,11.78
2023-05-19T00:30:47.950Z,11.79
2023-05-19T00:31:51.386Z,11.79
2023-05-19T00:32:54.185Z,11.78
2023-05-19T00:33:56.514Z,11.79
2023-05-19T00:34:59.833Z,11.78
2023-05-19T00:36:03.831Z,11.78
2023-05-19T00:37:06.363Z,11.77
2023-05-19T00:38:08.969Z,11.76
2023-05-19T00:39:11.336Z,11.75
2023-05-19T00:40:14.819Z,11.74
2023-05-19T00:41:17.147Z,11.74
2023-05-19T00:42:21.180Z,11.73
2023-05-19T00:43:23.506Z,11.74
2023-05-19T00:44:25.861Z,11.73
2023-05-19T00:45:28.231Z,11.72
2023-05-19T00:46:30.953Z,11.71
2023-05-19T00:47:33.552Z,11.69
2023-05-19T00:48:35.887Z,11.69
2023-05-19T00:49:38.376Z,11.68
2023-05-19T00:50:41.734Z,11.67
2023-05-19T00:51:44.117Z,11.67
2023-05-19T00:52:46.716Z,11.65
2023-05-19T00:53:52.319Z,11.64
2023-05-19T00:54:55.989Z,11.63
2023-05-19T00:56:02.238Z,11.60
2023-05-19T00:57:05.016Z,11.60
2023-05-19T00:58:11.067Z,11.57
2023-05-19T00:59:13.417Z,11.57
2023-05-19T01:00:16.658Z,11.54
2023-05-19T01:01:21.945Z,11.54
2023-05-19T01:02:25.539Z,11.52
2023-05-19T01:03:31.283Z,11.51
2023-05-19T01:04:36.282Z,11.50
2023-05-19T01:05:42.537Z,11.48
2023-05-19T01:06:45.652Z,11.47
2023-05-19T01:07:52.183Z,11.45
2023-05-19T01:08:54.772Z,11.43
2023-05-19T01:09:57.767Z,11.42
2023-05-19T01:11:01.021Z,11.40
2023-05-19T01:12:03.959Z,11.39
2023-05-19T01:13:07.798Z,11.38
2023-05-19T01:14:10.195Z,11.37
2023-05-19T01:15:14.214Z,11.34
2023-05-19T01:16:23.955Z,11.33
2023-05-19T01:18:00.394Z,11.31
2023-05-19T01:19:26.665Z,11.29
2023-05-19T01:20:53.890Z,11.26
2023-05-19T01:22:23.294Z,11.25
2023-05-19T01:23:40.226Z,11.22
2023-05-19T01:25:07.237Z,11.19
2023-05-19T01:26:27.238Z,11.16
2023-05-19T01:27:59.849Z,11.14
2023-05-19T01:29:11.595Z,11.12
2023-05-19T01:30:23.966Z,11.09
2023-05-19T01:31:27.267Z,11.07
2023-05-19T01:32:31.722Z,11.04
2023-05-19T01:33:36.092Z,11.02
2023-05-19T01:34:42.754Z,11.00
2023-05-19T01:35:46.107Z,10.99
2023-05-19T01:36:50.058Z,10.97
2023-05-19T01:37:56.904Z,10.94
2023-05-19T01:39:00.301Z,10.92
2023-05-19T01:40:02.770Z,10.90
2023-05-19T01:41:07.090Z,10.89
2023-05-19T01:42:12.123Z,10.86
2023-05-19T01:43:19.763Z,10.84
2023-05-19T01:44:23.028Z,10.82
2023-05-19T01:45:27.897Z,10.81
2023-05-19T01:46:30.737Z,10.80
2023-05-19T01:47:38.545Z,10.78
2023-05-19T01:48:43.294Z,10.77
2023-05-19T01:49:45.636Z,10.74
2023-05-19T01:50:48.104Z,10.72
2023-05-19T01:51:51.073Z,10.70
2023-05-19T01:52:54.160Z,10.69
2023-05-19T01:53:56.605Z,10.66
2023-05-19T01:54:58.950Z,10.64
2023-05-19T01:56:03.140Z,10.63
2023-05-19T01:57:24.889Z,10.60
2023-05-19T01:58:27.573Z,10.59
2023-05-19T01:59:57.301Z,10.57
2023-05-19T02:01:16.761Z,10.54
2023-05-19T02:02:43.437Z,10.50
2023-05-19T02:03:59.089Z,10.47
2023-05-19T02:05:13.812Z,10.46
2023-05-19T02:06:21.530Z,10.43
2023-05-19T02:07:37.718Z,10.41
2023-05-19T02:08:51.183Z,10.40
2023-05-19T02:10:06.191Z,10.37
2023-05-19T02:11:14.260Z,10.35
2023-05-19T02:12:26.232Z,10.33
2023-05-19T02:13:34.510Z,10.31
2023-05-19T02:14:46.719Z,10.29
2023-05-19T02:15:51.265Z,10.27
2023-05-19T02:16:58.035Z,10.26
2023-05-19T02:18:04.819Z,10.24
2023-05-19T02:19:07.397Z,10.20
2023-05-19T02:20:12.035Z,10.20
2023-05-19T02:21:14.446Z,10.18
2023-05-19T02:22:17.173Z,10.17
2023-05-19T02:23:19.876Z,10.15
2023-05-19T02:24:23.136Z,10.14
2023-05-19T02:25:26.032Z,10.12
2023-05-19T02:26:28.498Z,10.10
2023-05-19T02:27:31.178Z,10.09
2023-05-19T02:28:33.616Z,10.08
2023-05-19T02:29:36.518Z,10.06
2023-05-19T02:30:38.829Z,10.03
2023-05-19T02:31:41.192Z,10.03
2023-05-19T02:32:47.043Z,10.01
2023-05-19T02:33:49.550Z,10.00
2023-05-19T02:34:53.504Z,9.98
2023-05-19T02:35:56.462Z,9.97
2023-05-19T02:36:59.181Z,9.94
2023-05-19T02:38:01.770Z,9.92
2023-05-19T02:39:05.062Z,9.92
2023-05-19T02:40:08.232Z,9.91
2023-05-19T02:41:11.002Z,9.88
2023-05-19T02:42:14.960Z,9.87
2023-05-19T02:43:17.557Z,9.86
2023-05-19T02:44:20.745Z,9.84
2023-05-19T02:45:23.197Z,9.83
2023-05-19T02:46:25.666Z,9.82
2023-05-19T02:47:28.006Z,9.81
2023-05-19T02:48:30.384Z,9.80
2023-05-19T02:49:36.243Z,9.78
2023-05-19T02:50:38.684Z,9.77
2023-05-19T02:51:41.033Z,9.75
2023-05-19T02:52:43.738Z,9.75
2023-05-19T02:53:46.520Z,9.73
2023-05-19T02:54:48.896Z,9.72
2023-05-19T02:55:51.659Z,9.71
2023-05-19T02:56:54.106Z,9.70
2023-05-19T02:57:56.469Z,9.68
2023-05-19T02:58:58.880Z,9.68
2023-05-19T03:00:01.201Z,9.66
2023-05-19T03:01:03.668Z,9.65
2023-05-19T03:02:06.051Z,9.65
2023-05-19T03:03:10.610Z,9.64
2023-05-19T03:04:14.246Z,9.62
2023-05-19T03:05:16.597Z,9.61
2023-05-19T03:06:19.031Z,9.60
2023-05-19T03:07:25.523Z,9.60
2023-05-19T03:08:28.640Z,9.58
2023-05-19T03:09:31.571Z,9.58
2023-05-19T03:10:34.084Z,9.57
2023-05-19T03:11:36.585Z,9.57
2023-05-19T03:12:39.225Z,9.55
2023-05-19T03:13:41.845Z,9.54
2023-05-19T03:14:44.542Z,9.53
2023-05-19T03:15:47.544Z,9.52
2023-05-19T03:16:49.944Z,9.52
2023-05-19T03:17:52.598Z,9.50
2023-05-19T03:18:55.844Z,9.48
2023-05-19T03:19:58.283Z,9.48
2023-05-19T03:21:01.161Z,9.48
2023-05-19T03:22:03.876Z,9.46
2023-05-19T03:23:07.098Z,9.46
2023-05-19T03:24:09.758Z,9.44
2023-05-19T03:25:12.039Z,9.43
2023-05-19T03:26:14.498Z,9.42
2023-05-19T03:27:17.282Z,9.40
2023-05-19T03:28:19.813Z,9.40
2023-05-19T03:29:22.201Z,9.38
2023-05-19T03:30:26.340Z,9.38
2023-05-19T03:31:39.197Z,9.35
2023-05-19T03:32:41.712Z,9.34
2023-05-19T03:33:44.422Z,9.34
2023-05-19T03:34:47.351Z,9.32
2023-05-19T03:35:50.322Z,9.31
2023-05-19T03:36:52.737Z,9.30
2023-05-19T03:37:55.989Z,9.29
2023-05-19T03:38:59.499Z,9.28
2023-05-19T03:40:02.315Z,9.26
2023-05-19T03:41:05.233Z,9.26
2023-05-19T03:42:07.670Z,9.25
2023-05-19T03:43:10.983Z,9.26
2023-05-19T03:44:20.354Z,9.24
2023-05-19T03:45:22.769Z,9.23
2023-05-19T03:46:27.167Z,9.21
2023-05-19T03:47:58.494Z,9.21
2023-05-19T03:49:19.697Z,9.19
2023-05-19T03:50:40.723Z,9.17
2023-05-19T03:51:50.920Z,9.16
2023-05-19T03:53:01.190Z,9.16
2023-05-19T03:54:06.272Z,9.14
2023-05-19T03:55:09.053Z,9.14
2023-05-19T03:56:14.113Z,9.13
2023-05-19T03:57:16.558Z,9.14
2023-05-19T03:58:19.170Z,9.11
2023-05-19T03:59:21.521Z,9.11
2023-05-19T04:00:24.150Z,9.12
2023-05-19T04:01:26.601Z,9.12
2023-05-19T04:02:29.334Z,9.10
2023-05-19T04:03:31.735Z,9.10
2023-05-19T04:04:35.884Z,9.10
2023-05-19T04:05:38.301Z,9.08
2023-05-19T04:06:40.819Z,9.08
2023-05-19T04:07:45.726Z,9.07
2023-05-19T04:08:48.048Z,9.06
2023-05-19T04:09:51.134Z,9.07
2023-05-19T04:10:53.479Z,9.07
2023-05-19T04:11:57.017Z,9.06
2023-05-19T04:13:00.036Z,9.06
2023-05-19T04:14:02.515Z,9.06
2023-05-19T04:15:06.245Z,9.06
2023-05-19T04:16:08.778Z,9.07
2023-05-19T04:17:11.422Z,9.07
2023-05-19T04:18:13.924Z,9.07
2023-05-19T04:19:16.565Z,9.07
2023-05-19T04:20:20.368Z,9.07
2023-05-19T04:21:22.786Z,9.08
2023-05-19T04:22:25.192Z,9.08
2023-05-19T04:23:28.276Z,9.08
2023-05-19T04:24:30.877Z,9.10
2023-05-19T04:25:38.652Z,9.09
2023-05-19T04:26:46.098Z,9.12
2023-05-19T04:27:49.360Z,9.13
2023-05-19T04:28:52.363Z,9.13
2023-05-19T04:29:54.964Z,9.15
2023-05-19T04:30:58.913Z,9.16
2023-05-19T04:32:01.351Z,9.17
2023-05-19T04:33:05.014Z,9.19
2023-05-19T04:34:10.638Z,9.19
2023-05-19T04:35:13.942Z,9.21
2023-05-19T04:36:18.630Z,9.21
2023-05-19T04:37:21.296Z,9.25
2023-05-19T04:38:23.694Z,9.25
2023-05-19T04:39:27.137Z,9.27
2023-05-19T04:40:31.662Z,9.28
2023-05-19T04:41:34.949Z,9.30
2023-05-19T04:42:43.081Z,9.30
2023-05-19T04:43:46.079Z,9.32
2023-05-19T04:44:52.124Z,9.35
2023-05-19T04:45:55.566Z,9.36
2023-05-19T04:46:58.575Z,9.38
2023-05-19T04:48:02.239Z,9.38
2023-05-19T04:49:04.595Z,9.40
2023-05-19T04:50:07.459Z,9.42
2023-05-19T04:51:10.480Z,9.43
2023-05-19T04:52:12.852Z,9.46
2023-05-19T04:53:18.053Z,9.45
2023-05-19T04:54:20.691Z,9.48
2023-05-19T04:55:23.276Z,9.50
2023-05-19T04:56:27.638Z,9.52
2023-05-19T04:57:30.338Z,9.51
2023-05-19T04:58:33.715Z,9.53
2023-05-19T04:59:36.295Z,9.56
2023-05-19T05:00:42.537Z,9.57
2023-05-19T05:01:45.956Z,9.59
2023-05-19T05:02:50.283Z,9.61
2023-05-19T05:03:55.654Z,9.62
2023-05-19T05:04:58.440Z,9.65
2023-05-19T05:06:00.761Z,9.68
2023-05-19T05:07:03.453Z,9.69
2023-05-19T05:08:06.345Z,9.71
2023-05-19T05:09:17.296Z,9.75
2023-05-19T05:10:20.020Z,9.76
2023-05-19T05:11:22.602Z,9.79
2023-05-19T05:12:25.390Z,9.82
2023-05-19T05:13:28.092Z,9.83
2023-05-19T05:14:30.684Z,9.86
2023-05-19T05:15:33.770Z,9.86
2023-05-19T05:16:38.617Z,9.88
2023-05-19T05:17:42.300Z,9.91
2023-05-19T05:18:45.213Z,9.94
2023-05-19T05:19:48.805Z,9.97
2023-05-19T05:20:51.554Z,9.99
2023-05-19T05:21:56.306Z,10.00
2023-05-19T05:22:58.962Z,10.03
2023-05-19T05:24:02.324Z,10.06
2023-05-19T05:25:08.086Z,10.08
2023-05-19T05:26:19.084Z,10.12
2023-05-19T05:27:23.779Z,10.14
2023-05-19T05:28:26.347Z,10.16
2023-05-19T05:29:29.558Z,10.20
2023-05-19T05:30:34.646Z,10.22
2023-05-19T05:31:37.889Z,10.25
2023-05-19T05:32:40.947Z,10.29
2023-05-19T05:33:50.784Z,10.30
2023-05-19T05:34:59.348Z,10.34
2023-05-19T05:36:02.179Z,10.37
2023-05-19T05:37:04.661Z,10.41
2023-05-19T05:38:07.233Z,10.43
2023-05-19T05:39:10.342Z,10.47
2023-05-19T05:40:14.792Z,10.49
2023-05-19T05:41:17.235Z,10.51
2023-05-19T05:42:20.718Z,10.56
2023-05-19T05:43:23.663Z,10.59
2023-05-19T05:44:31.869Z,10.63
2023-05-19T05:45:34.454Z,10.65
2023-05-19T05:46:37.543Z,10.68
2023-05-19T05:47:41.685Z,10.72
2023-05-19T05:48:45.013Z,10.76
2023-05-19T05:49:48.910Z,10.79
2023-05-19T05:50:52.707Z,10.82
2023-05-19T05:52:05.837Z,10.86
2023-05-19T05:53:19.728Z,10.90
2023-05-19T05:54:25.129Z,10.94
2023-05-19T05:55:28.799Z,10.98
2023-05-19T05:56:34.005Z,11.01
2023-05-19T05:57:36.939Z,11.05
2023-05-19T05:58:40.897Z,11.09
2023-05-19T05:59:45.816Z,11.12
2023-05-19T06:00:49.543Z,11.15
2023-05-19T06:01:53.235Z,11.18
2023-05-19T06:02:57.615Z,11.22
2023-05-19T06:04:01.466Z,11.26
2023-05-19T06:05:07.008Z,11.29
2023-05-19T06:06:10.479Z,11.33
2023-05-19T06:07:12.869Z,11.37
2023-05-19T06:08:15.599Z,11.40
2023-05-19T06:09:18.501Z,11.43
2023-05-19T06:10:21.477Z,11.46
2023-05-19T06:11:25.356Z,11.51
2023-05-19T06:12:28.966Z,11.54
2023-05-19T06:13:31.357Z,11.59
2023-05-19T06:14:33.876Z,11.61
2023-05-19T06:15:53.277Z,11.66
2023-05-19T06:17:00.708Z,11.72
2023-05-19T06:18:04.230Z,11.75
2023-05-19T06:19:06.687Z,11.80
2023-05-19T06:20:11.064Z,11.84
2023-05-19T06:21:14.870Z,11.87
2023-05-19T06:22:18.007Z,11.93
2023-05-19T06:23:20.364Z,11.97
2023-05-19T06:24:22.967Z,12.02
2023-05-19T06:25:26.054Z,12.06
2023-05-19T06:26:28.750Z,12.11
2023-05-19T06:27:32.634Z,12.14
2023-05-19T06:28:37.298Z,12.20
2023-05-19T06:29:40.836Z,12.23
2023-05-19T06:30:44.514Z,12.29
2023-05-19T06:32:09.916Z,12.35
2023-05-19T06:33:12.624Z,12.40
2023-05-19T06:34:17.875Z,12.44
2023-05-19T06:35:22.374Z,12.49
2023-05-19T06:36:26.571Z,12.53
2023-05-19T06:37:31.830Z,12.57
2023-05-19T06:38:34.160Z,12.61
2023-05-19T06:39:39.137Z,12.66
2023-05-19T06:40:41.617Z,12.71
2023-05-19T06:41:44.734Z,12.75
2023-05-19T06:42:58.884Z,12.79
2023-05-19T06:44:15.026Z,12.86
2023-05-19T06:45:22.635Z,12.92
2023-05-19T06:46:28.195Z,12.97
2023-05-19T06:47:31.097Z,13.02
2023-05-19T06:48:34.305Z,13.10
2023-05-19T06:49:37.632Z,13.15
2023-05-19T06:50:39.998Z,13.23
2023-05-19T06:51:42.486Z,13.30
2023-05-19T06:52:44.892Z,13.37
2023-05-19T06:53:49.160Z,13.44
2023-05-19T06:54:51.480Z,13.52
2023-05-19T06:55:58.697Z,13.59
2023-05-19T06:57:02.757Z,13.69
2023-05-19T06:58:05.357Z,13.78
2023-05-19T06:59:07.664Z,13.87
2023-05-19T07:00:15.273Z,13.96
2023-05-19T07:01:21.952Z,14.07
2023-05-19T07:02:29.541Z,14.20
2023-05-19T07:03:32.799Z,14.29
2023-05-19T07:04:36.584Z,14.41
2023-05-19T07:05:38.984Z,14.52
2023-05-19T07:06:41.267Z,14.61
2023-05-19T07:07:44.210Z,14.72
2023-05-19T07:08:49.352Z,14.84
2023-05-19T07:09:52.877Z,14.88
2023-05-19T07:10:56.740Z,15.00
2023-05-19T07:11:59.221Z,15.09
2023-05-19T07:13:02.025Z,15.17
2023-05-19T07:14:08.056Z,15.30
2023-05-19T07:15:11.886Z,15.40
2023-05-19T07:16:14.379Z,15.50
2023-05-19T07:17:17.727Z,15.58
2023-05-19T07:18:21.603Z,15.69
2023-05-19T07:19:24.395Z,15.75
2023-05-19T07:20:28.388Z,15.84
2023-05-19T07:21:30.963Z,15.94
2023-05-19T07:22:35.479Z,16.04
2023-05-19T07:23:38.144Z,16.14
2023-05-19T07:24:41.066Z,16.24
2023-05-19T07:25:43.446Z,16.35
2023-05-19T07:26:45.792Z,16.43
2023-05-19T07:27:48.196Z,16.55
2023-05-19T07:28:52.109Z,16.66
2023-05-19T07:29:54.670Z,16.72
2023-05-19T07:30:57.103Z,16.79
2023-05-19T07:31:59.681Z,16.87
2023-05-19T07:33:02.130Z,16.92
2023-05-19T07:34:04.642Z,16.99
2023-05-19T07:35:08.938Z,17.03
2023-05-19T07:36:11.693Z,17.07
2023-05-19T07:37:16.433Z,17.10
2023-05-19T07:38:18.936Z,17.11
2023-05-19T07:39:22.597Z,17.10
2023-05-19T07:40:25.111Z,17.10
2023-05-19T07:41:27.665Z,17.10
2023-05-19T07:42:30.053Z,17.10
2023-05-19T07:43:32.453Z,17.10
2023-05-19T07:44:35.134Z,17.10
2023-05-19T07:45:38.332Z,17.05
2023-05-19T07:46:40.790Z,17.07
2023-05-19T07:47:43.259Z,17.02
2023-05-19T07:48:46.041Z,16.98
2023-05-19T07:49:50.375Z,16.93
2023-05-19T07:50:54.355Z,16.89
2023-05-19T07:51:57.363Z,16.83
2023-05-19T07:52:59.722Z,16.79
2023-05-19T07:54:04.063Z,16.77
2023-05-19T07:55:06.555Z,16.74
2023-05-19T07:56:08.979Z,16.76
2023-05-19T07:57:11.561Z,16.73
2023-05-19T07:58:14.577Z,16.74
2023-05-19T07:59:16.935Z,16.75
2023-05-19T08:00:19.459Z,16.80
2023-05-19T08:01:22.321Z,16.84
2023-05-19T08:02:25.150Z,16.89
2023-05-19T08:03:28.693Z,16.94
2023-05-19T08:04:31.961Z,17.01
2023-05-19T08:05:36.491Z,17.08
2023-05-19T08:06:39.730Z,17.15
2023-05-19T08:07:42.141Z,17.19
2023-05-19T08:08:44.599Z,17.26
2023-05-19T08:09:47.087Z,17.35
2023-05-19T08:10:49.759Z,17.41
2023-05-19T08:11:52.226Z,17.50
2023-05-19T08:12:54.727Z,17.56
2023-05-19T08:13:57.734Z,17.61
2023-05-19T08:15:01.347Z,17.69
2023-05-19T08:16:06.471Z,17.74
2023-05-19T08:17:08.913Z,17.82
2023-05-19T08:18:11.275Z,17.87
2023-05-19T08:19:13.853Z,17.95
2023-05-19T08:20:16.267Z,18.02
2023-05-19T08:21:19.744Z,18.12
2023-05-19T08:22:22.132Z,18.16
2023-05-19T08:23:24.518Z,18.22
2023-05-19T08:24:29.783Z,18.28
2023-05-19T08:25:33.070Z,18.37
2023-05-19T08:26:37.638Z,18.43
2023-05-19T08:27:41.601Z,18.49
2023-05-19T08:28:44.483Z,18.53
2023-05-19T08:29:46.816Z,18.58
2023-05-19T08:30:52.653Z,18.61
2023-05-19T08:31:55.175Z,18.67
2023-05-19T08:32:57.699Z,18.72
2023-05-19T08:34:00.196Z,18.72
2023-05-19T08:35:02.533Z,18.79
2023-05-19T08:36:05.273Z,18.80
2023-05-19T08:37:07.992Z,18.83
2023-05-19T08:38:10.370Z,18.84
2023-05-19T08:39:14.242Z,18.87
2023-05-19T08:40:18.543Z,18.87
2023-05-19T08:41:23.453Z,18.89
2023-05-19T08:42:25.780Z,18.84
2023-05-19T08:43:28.252Z,18.79
2023-05-19T08:44:31.806Z,18.79
2023-05-19T08:45:38.901Z,18.81
2023-05-19T08:46:44.943Z,18.83
2023-05-19T08:47:51.219Z,18.81
2023-05-19T08:48:58.837Z,18.79
2023-05-19T08:50:11.959Z,18.74
2023-05-19T08:51:30.483Z,18.73
2023-05-19T08:52:46.878Z,18.72
2023-05-19T08:53:57.860Z,18.72
2023-05-19T08:55:13.238Z,18.73
2023-05-19T08:56:20.254Z,18.76
2023-05-19T08:57:25.342Z,18.78
2023-05-19T08:58:28.880Z,18.81
2023-05-19T08:59:32.774Z,18.86
2023-05-19T09:00:35.797Z,18.90
2023-05-19T09:01:40.713Z,18.87
2023-05-19T09:02:55.082Z,18.89
2023-05-19T09:04:03.862Z,18.92
2023-05-19T09:05:07.482Z,18.91
2023-05-19T09:06:14.702Z,18.91
2023-05-19T09:07:17.404Z,18.86
2023-05-19T09:08:19.868Z,18.88
2023-05-19T09:09:22.461Z,18.90
2023-05-19T09:10:25.613Z,18.92
2023-05-19T09:11:28.900Z,18.97
2023-05-19T09:12:31.728Z,18.94
2023-05-19T09:13:34.427Z,18.90
2023-05-19T09:14:37.588Z,18.92
2023-05-19T09:15:41.425Z,18.87
2023-05-19T09:16:46.070Z,18.91
2023-05-19T09:17:52.129Z,18.86
2023-05-19T09:18:58.435Z,18.86
2023-05-19T09:20:07.120Z,18.91
2023-05-19T09:21:12.090Z,18.88
2023-05-19T09:22:16.292Z,18.89
2023-05-19T09:23:18.641Z,18.91
2023-05-19T09:24:25.772Z,18.92
2023-05-19T09:25:28.269Z,18.92
2023-05-19T09:26:38.553Z,18.94
2023-05-19T09:27:41.286Z,18.90
2023-05-19T09:28:43.650Z,18.91
2023-05-19T09:29:45.950Z,18.93
2023-05-19T09:30:48.623Z,18.91
2023-05-19T09:31:56.593Z,18.86
2023-05-19T09:32:59.203Z,18.84
2023-05-19T09:34:01.630Z,18.85
2023-05-19T09:35:04.609Z,18.89
2023-05-19T09:36:08.712Z,18.87
2023-05-19T09:37:13.384Z,18.85
2023-05-19T09:38:19.419Z,18.88
2023-05-19T09:39:23.707Z,18.85
2023-05-19T09:40:28.307Z,18.83
2023-05-19T09:41:31.174Z,18.82
2023-05-19T09:42:37.529Z,18.83
2023-05-19T09:43:39.904Z,18.83
2023-05-19T09:44:42.592Z,18.83
2023-05-19T09:45:45.325Z,18.84
2023-05-19T09:46:50.036Z,18.86
2023-05-19T09:47:52.421Z,18.83
2023-05-19T09:48:58.883Z,18.83
2023-05-19T09:50:02.052Z,18.85
2023-05-19T09:51:09.247Z,18.84
2023-05-19T09:52:16.433Z,18.85
2023-05-19T09:53:18.968Z,18.86
2023-05-19T09:54:23.906Z,18.90
2023-05-19T09:55:28.960Z,18.91
2023-05-19T09:56:38.266Z,18.91
2023-05-19T09:57:41.670Z,18.92
2023-05-19T09:58:44.099Z,18.93
2023-05-19T09:59:46.763Z,18.96
2023-05-19T10:00:50.673Z,18.94
2023-05-19T10:01:58.014Z,18.94
2023-05-19T10:03:02.696Z,18.94
2023-05-19T10:04:06.096Z,18.91
2023-05-19T10:05:17.822Z,18.93
2023-05-19T10:06:22.181Z,18.90
2023-05-19T10:07:24.842Z,18.89
2023-05-19T10:08:30.126Z,18.90
2023-05-19T10:09:33.730Z,18.86
2023-05-19T10:10:37.353Z,18.87
2023-05-19T10:11:40.249Z,18.83
2023-05-19T10:12:43.400Z,18.76
2023-05-19T10:13:46.381Z,18.74
2023-05-19T10:14:49.238Z,18.74
2023-05-19T10:16:59.691Z,18.67
2023-05-19T10:18:03.832Z,18.65
2023-05-19T10:19:09.279Z,18.66
2023-05-19T10:20:14.288Z,18.63
2023-05-19T10:21:17.324Z,18.60
2023-05-19T10:22:19.602Z,18.56
2023-05-19T10:23:22.716Z,18.55
2023-05-19T10:24:25.271Z,18.51
2023-05-19T10:25:27.958Z,18.48
2023-05-19T10:26:31.435Z,18.47
2023-05-19T10:27:49.083Z,18.44
2023-05-19T10:28:51.832Z,18.46
2023-05-19T10:29:57.765Z,18.46
2023-05-19T10:31:03.293Z,18.42
2023-05-19T10:32:11.881Z,18.40
2023-05-19T10:33:17.690Z,18.39
2023-05-19T10:34:22.448Z,18.36
2023-05-19T10:35:34.541Z,18.37
2023-05-19T10:36:45.192Z,18.38
2023-05-19T10:38:06.654Z,18.36
2023-05-19T10:39:18.415Z,18.37
2023-05-19T10:40:39.137Z,18.37
2023-05-19T10:42:19.686Z,18.37
2023-05-19T10:44:02.121Z,18.38
2023-05-19T10:45:21.280Z,18.40
2023-05-19T10:46:27.522Z,18.39
2023-05-19T10:47:30.731Z,18.36
2023-05-19T10:48:36.541Z,18.34
2023-05-19T10:49:40.003Z,18.38
2023-05-19T10:50:45.434Z,18.37
2023-05-19T10:51:47.701Z,18.37
2023-05-19T10:52:56.998Z,18.36
2023-05-19T10:54:03.976Z,18.40
2023-05-19T10:55:18.007Z,18.39
2023-05-19T10:56:31.300Z,18.40
2023-05-19T10:57:34.177Z,18.41
2023-05-19T10:58:49.791Z,18.43
2023-05-19T10:59:52.187Z,18.42
2023-05-19T11:01:01.252Z,18.45
2023-05-19T11:02:05.116Z,18.42
2023-05-19T11:03:24.472Z,18.44
2023-05-19T11:04:51.946Z,18.45
2023-05-19T11:06:17.777Z,18.43
2023-05-19T11:07:22.594Z,18.43
2023-05-19T11:08:33.755Z,18.43
2023-05-19T11:09:41.213Z,18.46
2023-05-19T11:10:46.665Z,18.48
2023-05-19T11:11:49.116Z,18.47
2023-05-19T11:12:52.353Z,18.46
2023-05-19T11:13:55.907Z,18.46
2023-05-19T11:14:59.529Z,18.44
2023-05-19T11:16:08.516Z,18.39
2023-05-19T11:17:15.474Z,18.41
2023-05-19T11:18:21.622Z,18.43
2023-05-19T11:19:32.309Z,18.43
2023-05-19T11:20:39.465Z,18.42
2023-05-19T11:22:00.951Z,18.41
2023-05-19T11:23:08.377Z,18.43
2023-05-19T11:24:11.173Z,18.41
2023-05-19T11:25:13.612Z,18.42
2023-05-19T11:26:15.969Z,18.42
2023-05-19T11:27:26.425Z,18.41
2023-05-19T11:28:31.117Z,18.40
2023-05-19T11:29:34.798Z,18.39
2023-05-19T11:30:37.635Z,18.35
2023-05-19T11:31:40.015Z,18.34
2023-05-19T11:32:44.781Z,18.28
2023-05-19T11:33:48.594Z,18.26
2023-05-19T11:34:54.644Z,18.19
2023-05-19T11:36:00.457Z,18.18
2023-05-19T11:37:03.084Z,18.11
2023-05-19T11:38:07.441Z,18.02
2023-05-19T11:39:10.828Z,18.00
2023-05-19T11:40:14.032Z,17.99
2023-05-19T11:41:18.202Z,17.97
2023-05-19T11:42:21.177Z,17.93
2023-05-19T11:43:24.905Z,17.93
2023-05-19T11:44:27.197Z,17.90
2023-05-19T11:45:32.213Z,17.90
2023-05-19T11:46:34.785Z,17.87
2023-05-19T11:47:50.769Z,17.87
2023-05-19T11:48:59.626Z,17.87
2023-05-19T11:50:02.233Z,17.87
2023-05-19T11:51:06.766Z,17.89
2023-05-19T11:52:09.188Z,17.90
2023-05-19T11:53:15.332Z,17.88
2023-05-19T11:54:19.520Z,17.90
2023-05-19T11:55:22.579Z,17.91
2023-05-19T11:56:24.906Z,17.91
2023-05-19T11:57:28.653Z,17.93
2023-05-19T11:58:32.361Z,17.97
2023-05-19T11:59:36.861Z,17.98
2023-05-19T12:00:41.962Z,17.96
2023-05-19T12:01:44.321Z,17.99
2023-05-19T12:02:46.951Z,18.01
2023-05-19T12:03:49.980Z,18.01
2023-05-19T12:04:52.954Z,18.03
2023-05-19T12:05:57.229Z,18.07
2023-05-19T12:06:59.780Z,18.09
2023-05-19T12:08:02.947Z,18.10
2023-05-19T12:09:05.727Z,18.09
2023-05-19T12:10:09.228Z,18.11
2023-05-19T12:11:11.689Z,18.14
2023-05-19T12:12:19.309Z,18.14
2023-05-19T12:13:22.945Z,18.16
2023-05-19T12:14:27.223Z,18.16
2023-05-19T12:15:29.588Z,18.11
2023-05-19T12:16:36.622Z,18.10
2023-05-19T12:17:39.269Z,18.14
2023-05-19T12:18:42.549Z,18.10
2023-05-19T12:19:47.269Z,18.10
2023-05-19T12:20:50.177Z,18.12
2023-05-19T12:21:53.386Z,18.09
2023-05-19T12:22:56.616Z,18.10
2023-05-19T12:24:00.203Z,18.10
2023-05-19T12:25:02.941Z,18.11
2023-05-19T12:26:05.430Z,18.13
2023-05-19T12:27:13.935Z,18.11
2023-05-19T12:28:16.777Z,18.11
2023-05-19T12:29:21.860Z,18.12
2023-05-19T12:30:29.112Z,18.14
2023-05-19T12:31:31.592Z,18.12
2023-05-19T12:32:36.312Z,18.07
2023-05-19T12:33:38.675Z,18.05
2023-05-19T12:34:41.945Z,18.01
2023-05-19T12:35:44.864Z,18.02
2023-05-19T12:36:47.192Z,18.04
2023-05-19T12:37:49.607Z,18.03
2023-05-19T12:38:58.442Z,18.04
2023-05-19T12:40:02.508Z,18.02
2023-05-19T12:41:06.564Z,18.03
2023-05-19T12:42:09.985Z,18.05
2023-05-19T12:43:23.175Z,18.08
2023-05-19T12:44:25.884Z,18.09
2023-05-19T12:45:29.049Z,18.10
2023-05-19T12:46:33.233Z,18.10
2023-05-19T12:47:36.433Z,18.07
2023-05-19T12:48:44.249Z,18.05
2023-05-19T12:49:57.357Z,18.05
2023-05-19T12:50:59.679Z,18.05
2023-05-19T12:52:11.880Z,18.04
2023-05-19T12:53:16.480Z,18.04
2023-05-19T12:54:22.382Z,18.01
2023-05-19T12:55:25.322Z,17.97
2023-05-19T12:56:27.641Z,17.97
2023-05-19T12:57:37.325Z,17.95
2023-05-19T12:58:40.119Z,17.94
2023-05-19T12:59:43.351Z,17.97
2023-05-19T13:00:50.659Z,17.94
2023-05-19T13:02:00.257Z,17.88
2023-05-19T13:03:07.881Z,17.88
2023-05-19T13:04:10.598Z,17.85
2023-05-19T13:05:13.208Z,17.86
2023-05-19T13:06:15.509Z,17.86
2023-05-19T13:07:17.984Z,17.89
2023-05-19T13:08:22.354Z,17.87
2023-05-19T13:09:24.756Z,17.88
2023-05-19T13:10:28.168Z,17.90
2023-05-19T13:11:30.548Z,17.89
2023-05-19T13:12:33.052Z,17.86
2023-05-19T13:13:35.659Z,17.88
2023-05-19T13:14:38.765Z,17.90
2023-05-19T13:15:43.487Z,17.89
2023-05-19T13:16:47.031Z,17.90
2023-05-19T13:17:49.623Z,17.89
2023-05-19T13:18:52.021Z,17.91
2023-05-19T13:19:54.789Z,17.90
2023-05-19T13:20:58.740Z,17.91
2023-05-19T13:22:03.800Z,17.91
2023-05-19T13:23:07.138Z,17.93
2023-05-19T13:24:09.696Z,17.96
2023-05-19T13:25:12.120Z,17.94
2023-05-19T13:26:15.754Z,17.92
2023-05-19T13:27:19.545Z,17.92
2023-05-19T13:28:21.893Z,17.92
2023-05-19T13:29:24.611Z,17.92
2023-05-19T13:30:28.277Z,17.94
2023-05-19T13:31:31.199Z,17.94
2023-05-19T13:32:34.256Z,17.93
2023-05-19T13:33:36.642Z,17.87
2023-05-19T13:34:40.338Z,17.90
2023-05-19T13:35:48.437Z,17.88
2023-05-19T13:36:50.988Z,17.92
2023-05-19T13:37:53.548Z,17.95
2023-05-19T13:38:55.935Z,17.97
2023-05-19T13:39:59.239Z,17.97
2023-05-19T13:41:01.621Z,18.00
2023-05-19T13:42:05.137Z,17.98
2023-05-19T13:43:07.987Z,17.99
2023-05-19T13:44:10.389Z,17.98
2023-05-19T13:45:12.999Z,18.01
2023-05-19T13:46:16.346Z,17.97
2023-05-19T13:47:18.833Z,18.00
2023-05-19T13:48:21.840Z,17.99
2023-05-19T13:49:25.417Z,17.96
2023-05-19T13:50:27.790Z,17.95
2023-05-19T13:51:30.075Z,17.98
2023-05-19T13:52:32.777Z,17.97
2023-05-19T13:53:35.238Z,17.97
2023-05-19T13:54:37.625Z,17.99
2023-05-19T13:55:39.987Z,17.99
2023-05-19T13:56:43.496Z,17.97
2023-05-19T13:57:45.841Z,17.97
2023-05-19T13:58:48.110Z,17.97
2023-05-19T14:00:01.906Z,17.93
2023-05-19T14:01:14.252Z,17.94
2023-05-19T14:02:16.590Z,17.92
2023-05-19T14:03:20.024Z,17.94